createdAt,value
2022-11-01T00:00:01.955Z,83.56
2022-11-01T00:01:02.311Z,83.66
2022-11-01T00:02:02.515Z,83.86
2022-11-01T00:03:02.568Z,83.86
2022-11-01T00:04:02.350Z,83.66
2022-11-01T00:05:02.215Z,83.52
2022-11-01T00:06:02.478Z,83.46
2022-11-01T00:07:02.699Z,83.62
2022-11-01T00:08:03.097Z,83.62
2022-11-01T00:09:02.709Z,83.52
2022-11-01T00:10:02.592Z,83.22
2022-11-01T00:11:02.712Z,83.22
2022-11-01T00:12:02.913Z,82.91
2022-11-01T00:13:03.248Z,82.81
2022-11-01T00:14:03.236Z,82.91
2022-11-01T00:15:03.143Z,83.01
2022-11-01T00:16:03.069Z,82.51
2022-11-01T00:17:01.956Z,82.78
2022-11-01T00:18:02.211Z,82.47
2022-11-01T00:19:02.062Z,82.37
2022-11-01T00:20:02.094Z,82.78
2022-11-01T00:21:02.045Z,82.57
2022-11-01T00:22:02.868Z,82.87
2022-11-01T00:23:02.933Z,82.57
2022-11-01T00:24:02.574Z,82.57
2022-11-01T00:25:03.049Z,82.78
2022-11-01T00:26:03.209Z,82.87
2022-11-01T00:27:02.405Z,82.57
2022-11-01T00:28:02.176Z,82.78
2022-11-01T00:29:02.058Z,82.87
2022-11-01T00:30:02.302Z,83.07
2022-11-01T00:31:02.462Z,83.18
2022-11-01T00:32:02.555Z,83.38
2022-11-01T00:33:03.007Z,83.18
2022-11-01T00:34:02.027Z,83.38
2022-11-01T00:35:02.133Z,83.38
2022-11-01T00:36:02.100Z,82.98
2022-11-01T00:37:03.089Z,82.98
2022-11-01T00:38:03.624Z,83.18
2022-11-01T00:39:02.579Z,82.84
2022-11-01T00:40:02.923Z,82.84
2022-11-01T00:41:02.700Z,82.78
2022-11-01T00:42:02.729Z,82.78
2022-11-01T00:43:02.524Z,82.87
2022-11-01T00:44:02.307Z,83.07
2022-11-01T00:45:02.626Z,83.24
2022-11-01T00:46:02.220Z,82.84
2022-11-01T00:47:02.823Z,82.93
2022-11-01T00:48:03.338Z,82.64
2022-11-01T00:49:02.960Z,82.43
2022-11-01T00:50:02.883Z,82.73
2022-11-01T00:51:02.828Z,82.53
2022-11-01T00:52:02.711Z,82.13
2022-11-01T00:53:02.465Z,82.33
2022-11-01T00:54:02.661Z,82.43
2022-11-01T00:55:02.521Z,82.23
2022-11-01T00:56:02.453Z,82.23
2022-11-01T00:57:03.056Z,82.23
2022-11-01T00:58:03.135Z,82.33
2022-11-01T00:59:03.254Z,82.43
2022-11-01T01:00:02.692Z,82.43
2022-11-01T01:01:02.844Z,82.23
2022-11-01T01:02:02.355Z,82.43
2022-11-01T01:03:02.546Z,82.13
2022-11-01T01:04:02.709Z,82.33
2022-11-01T01:05:02.743Z,82.43
2022-11-01T01:06:02.715Z,82.33
2022-11-01T01:07:02.685Z,82.64
2022-11-01T01:08:02.829Z,82.23
2022-11-01T01:09:02.485Z,81.59
2022-11-01T01:10:02.923Z,81.82
2022-11-01T01:11:02.401Z,81.82
2022-11-01T01:12:02.176Z,81.52
2022-11-01T01:13:01.993Z,81.73
2022-11-01T01:14:01.913Z,82.03
2022-11-01T01:15:01.731Z,81.59
2022-11-01T01:16:01.948Z,81.59
2022-11-01T01:17:02.573Z,81.59
2022-11-01T01:18:02.721Z,81.68
2022-11-01T01:19:02.332Z,81.79
2022-11-01T01:20:02.221Z,81.59
2022-11-01T01:21:02.185Z,81.48
2022-11-01T01:22:02.531Z,81.18
2022-11-01T01:23:02.880Z,81.24
2022-11-01T01:24:02.954Z,81.04
2022-11-01T01:25:02.488Z,80.74
2022-11-01T01:26:02.750Z,80.54
2022-11-01T01:27:01.969Z,80.44
2022-11-01T01:28:02.771Z,80.24
2022-11-01T01:29:02.084Z,80.33
2022-11-01T01:30:02.437Z,80.44
2022-11-01T01:31:02.415Z,80.54
2022-11-01T01:32:02.470Z,80.44
2022-11-01T01:33:02.651Z,80.54
2022-11-01T01:34:02.744Z,80.54
2022-11-01T01:35:02.874Z,80.64
2022-11-01T01:36:02.511Z,80.74
2022-11-01T01:37:02.020Z,81.04
2022-11-01T01:38:02.109Z,81.04
2022-11-01T01:39:02.055Z,81.35
2022-11-01T01:40:02.149Z,81.04
2022-11-01T01:41:02.180Z,81.35
2022-11-01T01:42:02.330Z,81.35
2022-11-01T01:43:02.993Z,81.65
2022-11-01T01:44:02.581Z,81.75
2022-11-01T01:45:02.507Z,81.85
2022-11-01T01:46:02.541Z,81.89
2022-11-01T01:47:02.195Z,81.95
2022-11-01T01:48:02.496Z,82.19
2022-11-01T01:49:01.912Z,82.39
2022-11-01T01:50:02.286Z,82.39
2022-11-01T01:51:02.064Z,82.25
2022-11-01T01:52:02.358Z,82.35
2022-11-01T01:53:02.932Z,82.70
2022-11-01T01:54:02.798Z,82.90
2022-11-01T01:55:02.168Z,83.10
2022-11-01T01:56:02.495Z,83.40
2022-11-01T01:57:02.844Z,83.60
2022-11-01T01:58:03.143Z,83.40
2022-11-01T01:59:03.279Z,83.30
2022-11-01T02:00:02.636Z,83.10
2022-11-01T02:01:03.026Z,83.10
2022-11-01T02:02:03.663Z,82.96
2022-11-01T02:03:04.035Z,82.76
2022-11-01T02:04:03.478Z,82.76
2022-11-01T02:05:03.580Z,82.76
2022-11-01T02:06:03.264Z,82.65
2022-11-01T02:07:03.396Z,82.56
2022-11-01T02:08:04.239Z,82.76
2022-11-01T02:09:03.887Z,82.76
2022-11-01T02:10:03.377Z,82.65
2022-11-01T02:11:03.962Z,82.96
2022-11-01T02:12:03.444Z,82.65
2022-11-01T02:13:03.811Z,82.45
2022-11-01T02:14:03.486Z,82.65
2022-11-01T02:15:03.546Z,82.86
2022-11-01T02:16:03.781Z,82.76
2022-11-01T02:17:07.073Z,82.76
2022-11-01T02:18:03.722Z,82.96
2022-11-01T02:19:03.119Z,82.96
2022-11-01T02:20:03.335Z,82.86
2022-11-01T02:21:03.321Z,82.96
2022-11-01T02:22:03.715Z,83.06
2022-11-01T02:23:03.902Z,83.06
2022-11-01T02:24:03.493Z,82.86
2022-11-01T02:25:03.994Z,82.96
2022-11-01T02:26:03.575Z,83.06
2022-11-01T02:27:02.790Z,83.16
2022-11-01T02:28:03.105Z,83.26
2022-11-01T02:29:05.683Z,83.46
2022-11-01T02:30:02.919Z,83.36
2022-11-01T02:31:02.864Z,83.36
2022-11-01T02:32:02.855Z,83.50
2022-11-01T02:33:03.386Z,83.56
2022-11-01T02:34:03.377Z,83.60
2022-11-01T02:35:03.393Z,83.80
2022-11-01T02:36:03.392Z,83.50
2022-11-01T02:37:03.238Z,83.91
2022-11-01T02:38:03.446Z,83.80
2022-11-01T02:39:03.234Z,83.70
2022-11-01T02:40:03.538Z,83.91
2022-11-01T02:41:03.605Z,84.01
2022-11-01T02:42:03.185Z,83.91
2022-11-01T02:43:03.325Z,83.66
2022-11-01T02:44:02.894Z,83.66
2022-11-01T02:45:02.864Z,83.66
2022-11-01T02:46:03.148Z,83.76
2022-11-01T02:47:03.036Z,83.56
2022-11-01T02:48:03.622Z,83.26
2022-11-01T02:49:03.707Z,83.36
2022-11-01T02:50:03.384Z,83.76
2022-11-01T02:51:03.260Z,83.97
2022-11-01T02:52:03.708Z,83.97
2022-11-01T02:53:04.055Z,84.07
2022-11-01T02:54:04.107Z,84.07
2022-11-01T02:55:03.808Z,84.17
2022-11-01T02:56:04.090Z,83.97
2022-11-01T02:57:02.726Z,83.76
2022-11-01T02:58:03.312Z,83.66
2022-11-01T02:59:03.050Z,83.87
2022-11-01T03:00:03.296Z,83.76
2022-11-01T03:01:02.845Z,83.87
2022-11-01T03:02:02.996Z,83.87
2022-11-01T03:03:02.433Z,84.17
2022-11-01T03:04:02.893Z,84.27
2022-11-01T03:05:02.845Z,84.17
2022-11-01T03:06:02.501Z,84.37
2022-11-01T03:07:02.877Z,84.47
2022-11-01T03:08:03.061Z,84.47
2022-11-01T03:09:03.091Z,84.47
2022-11-01T03:10:02.888Z,84.57
2022-11-01T03:11:02.672Z,84.57
2022-11-01T03:12:02.868Z,84.37
2022-11-01T03:13:03.093Z,84.47
2022-11-01T03:14:02.706Z,84.71
2022-11-01T03:15:03.198Z,84.81
2022-11-01T03:16:02.713Z,84.91
2022-11-01T03:17:02.443Z,85.11
2022-11-01T03:18:02.845Z,84.81
2022-11-01T03:19:02.759Z,85.11
2022-11-01T03:20:02.744Z,85.52
2022-11-01T03:21:02.822Z,85.11
2022-11-01T03:22:02.413Z,84.91
2022-11-01T03:23:02.663Z,85.02
2022-11-01T03:24:02.564Z,84.81
2022-11-01T03:25:02.852Z,84.77
2022-11-01T03:26:02.694Z,85.31
2022-11-01T03:27:02.401Z,85.52
2022-11-01T03:28:02.745Z,85.42
2022-11-01T03:29:02.628Z,85.22
2022-11-01T03:30:02.527Z,85.02
2022-11-01T03:31:02.411Z,84.91
2022-11-01T03:32:02.960Z,85.31
2022-11-01T03:33:03.253Z,85.11
2022-11-01T03:34:03.310Z,84.88
2022-11-01T03:35:02.865Z,85.02
2022-11-01T03:36:03.403Z,84.77
2022-11-01T03:37:02.859Z,84.97
2022-11-01T03:38:02.326Z,84.97
2022-11-01T03:39:02.909Z,84.88
2022-11-01T03:40:02.878Z,84.88
2022-11-01T03:41:02.505Z,84.88
2022-11-01T03:42:03.517Z,85.28
2022-11-01T03:43:03.601Z,85.17
2022-11-01T03:44:02.915Z,85.08
2022-11-01T03:45:02.943Z,85.38
2022-11-01T03:46:03.494Z,85.28
2022-11-01T03:47:02.849Z,85.38
2022-11-01T03:48:03.628Z,85.58
2022-11-01T03:49:02.682Z,85.92
2022-11-01T03:50:02.564Z,86.43
2022-11-01T03:51:02.720Z,86.73
2022-11-01T03:52:03.544Z,86.53
2022-11-01T03:53:03.310Z,86.53
2022-11-01T03:54:03.291Z,86.53
2022-11-01T03:55:03.527Z,86.43
2022-11-01T03:56:03.870Z,86.63
2022-11-01T03:57:02.990Z,86.53
2022-11-01T03:58:02.804Z,86.33
2022-11-01T03:59:02.927Z,86.18
2022-11-01T04:00:02.381Z,86.38
2022-11-01T04:01:02.719Z,85.98
2022-11-01T04:02:03.548Z,86.49
2022-11-01T04:03:03.537Z,85.98
2022-11-01T04:04:03.258Z,86.08
2022-11-01T04:05:03.152Z,86.08
2022-11-01T04:06:03.622Z,86.38
2022-11-01T04:07:02.760Z,86.58
2022-11-01T04:08:03.222Z,86.08
2022-11-01T04:09:03.303Z,85.98
2022-11-01T04:10:03.301Z,86.49
2022-11-01T04:11:03.118Z,86.79
2022-11-01T04:12:02.676Z,86.18
2022-11-01T04:13:03.000Z,86.69
2022-11-01T04:14:02.498Z,86.99
2022-11-01T04:15:02.926Z,87.09
2022-11-01T04:16:02.450Z,86.79
2022-11-01T04:17:02.842Z,86.58
2022-11-01T04:18:02.727Z,86.58
2022-11-01T04:19:02.755Z,86.49
2022-11-01T04:20:02.973Z,86.69
2022-11-01T04:21:02.672Z,86.58
2022-11-01T04:22:03.352Z,86.69
2022-11-01T04:23:03.731Z,86.69
2022-11-01T04:24:02.853Z,86.89
2022-11-01T04:25:03.498Z,86.79
2022-11-01T04:26:03.201Z,86.89
2022-11-01T04:27:02.911Z,87.29
2022-11-01T04:28:02.453Z,87.94
2022-11-01T04:29:02.625Z,87.60
2022-11-01T04:30:02.750Z,87.19
2022-11-01T04:31:02.409Z,87.19
2022-11-01T04:32:03.027Z,87.09
2022-11-01T04:33:03.298Z,87.40
2022-11-01T04:34:03.030Z,87.19
2022-11-01T04:35:03.240Z,87.40
2022-11-01T04:36:03.188Z,86.99
2022-11-01T04:37:02.823Z,87.19
2022-11-01T04:38:02.617Z,87.09
2022-11-01T04:39:02.755Z,86.89
2022-11-01T04:40:02.624Z,86.58
2022-11-01T04:41:02.488Z,86.49
2022-11-01T04:42:03.010Z,86.38
2022-11-01T04:43:02.865Z,86.29
2022-11-01T04:44:02.999Z,86.29
2022-11-01T04:45:02.906Z,86.99
2022-11-01T04:46:02.625Z,87.29
2022-11-01T04:47:03.240Z,87.09
2022-11-01T04:48:04.131Z,86.65
2022-11-01T04:49:02.918Z,86.35
2022-11-01T04:50:03.607Z,86.24
2022-11-01T04:51:03.412Z,86.55
2022-11-01T04:52:03.127Z,86.75
2022-11-01T04:53:03.418Z,86.65
2022-11-01T04:54:03.084Z,86.79
2022-11-01T04:55:02.507Z,87.40
2022-11-01T04:56:02.986Z,87.25
2022-11-01T04:57:03.660Z,87.35
2022-11-01T04:58:02.927Z,87.60
2022-11-01T04:59:03.199Z,87.80
2022-11-01T05:00:03.320Z,87.70
2022-11-01T05:01:03.507Z,88.00
2022-11-01T05:02:03.587Z,87.40
2022-11-01T05:03:03.906Z,87.90
2022-11-01T05:04:03.115Z,86.95
2022-11-01T05:05:02.936Z,87.40
2022-11-01T05:06:03.073Z,87.19
2022-11-01T05:07:02.294Z,87.70
2022-11-01T05:09:02.926Z,88.00
2022-11-01T05:10:02.646Z,86.85
2022-11-01T05:11:02.517Z,86.89
2022-11-01T05:12:02.837Z,87.49
2022-11-01T05:13:03.673Z,88.00
2022-11-01T05:14:02.830Z,88.10
2022-11-01T05:15:02.927Z,87.19
2022-11-01T05:17:02.888Z,87.90
2022-11-01T05:18:02.808Z,87.90
2022-11-01T05:19:03.132Z,87.49
2022-11-01T05:20:02.877Z,86.89
2022-11-01T05:21:02.893Z,87.09
2022-11-01T05:22:02.869Z,87.70
2022-11-01T05:23:03.479Z,88.20
2022-11-01T05:24:03.477Z,88.10
2022-11-01T05:25:03.159Z,87.19
2022-11-01T05:26:03.128Z,87.19
2022-11-01T05:27:03.696Z,88.00
2022-11-01T05:28:03.885Z,88.10
2022-11-01T05:29:09.083Z,88.50
2022-11-01T05:30:03.311Z,88.95
2022-11-01T05:31:03.332Z,88.10
2022-11-01T05:32:02.200Z,88.60
2022-11-01T05:33:02.368Z,88.45
2022-11-01T05:34:02.274Z,87.90
2022-11-01T05:35:02.821Z,88.54
2022-11-01T05:36:02.693Z,88.85
2022-11-01T05:37:02.622Z,87.60
2022-11-01T05:38:02.982Z,87.60
2022-11-01T05:39:02.877Z,87.80
2022-11-01T05:40:02.776Z,87.29
2022-11-01T05:41:02.931Z,87.40
2022-11-01T05:42:03.131Z,87.49
2022-11-01T05:43:03.166Z,87.19
2022-11-01T05:44:02.958Z,88.04
2022-11-01T05:45:03.243Z,87.40
2022-11-01T05:46:03.077Z,87.54
2022-11-01T05:47:03.384Z,87.74
2022-11-01T05:48:03.661Z,88.24
2022-11-01T05:49:03.333Z,88.54
2022-11-01T05:50:03.545Z,87.84
2022-11-01T05:51:03.059Z,87.74
2022-11-01T05:52:02.878Z,88.54
2022-11-01T05:53:03.175Z,88.85
2022-11-01T05:54:02.434Z,87.94
2022-11-01T05:55:02.351Z,88.04
2022-11-01T05:56:02.367Z,88.48
2022-11-01T05:57:02.444Z,88.99
2022-11-01T05:58:02.956Z,88.68
2022-11-01T05:59:02.612Z,88.08
2022-11-01T06:00:02.574Z,88.18
2022-11-01T06:01:02.855Z,88.59
2022-11-01T06:02:03.403Z,89.03
2022-11-01T06:03:03.296Z,89.34
2022-11-01T06:04:02.899Z,89.54
2022-11-01T06:05:03.361Z,89.43
2022-11-01T06:06:03.059Z,89.03
2022-11-01T06:07:02.196Z,88.93
2022-11-01T06:08:02.121Z,88.93
2022-11-01T06:09:02.092Z,89.68
2022-11-01T06:10:02.020Z,89.88
2022-11-01T06:11:02.507Z,90.49
2022-11-01T06:12:02.504Z,90.08
2022-11-01T06:13:02.768Z,90.19
2022-11-01T06:14:02.291Z,90.49
2022-11-01T06:15:02.353Z,90.94
2022-11-01T06:16:02.593Z,90.94
2022-11-01T06:17:02.404Z,91.24
2022-11-01T06:18:03.245Z,91.64
2022-11-01T06:19:02.776Z,91.44
2022-11-01T06:20:02.602Z,91.03
2022-11-01T06:21:02.924Z,90.94
2022-11-01T06:22:02.969Z,90.94
2022-11-01T06:23:03.163Z,91.34
2022-11-01T06:24:02.985Z,91.54
2022-11-01T06:25:02.581Z,91.54
2022-11-01T06:26:02.525Z,91.64
2022-11-01T06:27:02.928Z,91.74
2022-11-01T06:28:03.767Z,91.44
2022-11-01T06:29:03.213Z,91.03
2022-11-01T06:30:03.313Z,90.89
2022-11-01T06:31:02.876Z,90.89
2022-11-01T06:32:02.991Z,90.59
2022-11-01T06:33:03.794Z,90.89
2022-11-01T06:34:03.429Z,90.99
2022-11-01T06:35:03.199Z,90.69
2022-11-01T06:36:02.848Z,90.79
2022-11-01T06:37:02.359Z,90.19
2022-11-01T06:38:02.282Z,90.08
2022-11-01T06:39:02.367Z,89.88
2022-11-01T06:40:02.538Z,89.37
2022-11-01T06:41:02.627Z,89.58
2022-11-01T06:42:02.521Z,89.17
2022-11-01T06:43:03.407Z,88.57
2022-11-01T06:44:02.812Z,88.57
2022-11-01T06:45:03.103Z,88.57
2022-11-01T06:46:02.556Z,88.67
2022-11-01T06:47:02.311Z,88.57
2022-11-01T06:48:02.973Z,88.12
2022-11-01T06:49:02.348Z,87.21
2022-11-01T06:50:02.425Z,86.71
2022-11-01T06:51:02.444Z,86.00
2022-11-01T06:52:02.697Z,86.10
2022-11-01T06:53:02.774Z,86.30
2022-11-01T06:54:02.593Z,86.00
2022-11-01T06:55:02.416Z,86.10
2022-11-01T06:56:02.195Z,86.10
2022-11-01T06:57:02.821Z,86.00
2022-11-01T06:58:03.136Z,85.16
2022-11-01T06:59:02.510Z,85.30
2022-11-01T07:00:02.720Z,85.19
2022-11-01T07:01:02.890Z,85.25
2022-11-01T07:02:02.273Z,85.16
2022-11-01T07:03:02.265Z,85.25
2022-11-01T07:04:02.055Z,85.16
2022-11-01T07:05:01.934Z,84.75
2022-11-01T07:06:02.044Z,84.35
2022-11-01T07:07:02.729Z,84.55
2022-11-01T07:08:02.867Z,84.25
2022-11-01T07:09:02.968Z,84.05
2022-11-01T07:10:02.514Z,83.84
2022-11-01T07:11:02.436Z,83.74
2022-11-01T07:12:02.229Z,83.84
2022-11-01T07:13:02.134Z,83.88
2022-11-01T07:14:02.345Z,83.58
2022-11-01T07:15:02.355Z,83.07
2022-11-01T07:16:02.077Z,83.48
2022-11-01T07:17:02.424Z,83.95
2022-11-01T07:18:02.844Z,83.84
2022-11-01T07:19:02.252Z,83.44
2022-11-01T07:20:02.044Z,83.34
2022-11-01T07:21:02.895Z,83.34
2022-11-01T07:22:02.189Z,83.64
2022-11-01T07:23:02.953Z,83.44
2022-11-01T07:24:02.455Z,83.74
2022-11-01T07:25:02.441Z,83.64
2022-11-01T07:26:02.463Z,83.54
2022-11-01T07:27:02.184Z,83.64
2022-11-01T07:28:02.141Z,83.84
2022-11-01T07:29:01.787Z,83.84
2022-11-01T07:30:01.878Z,83.74
2022-11-01T07:31:02.420Z,83.84
2022-11-01T07:32:02.584Z,83.74
2022-11-01T07:33:02.777Z,83.24
2022-11-01T07:34:02.212Z,83.64
2022-11-01T07:35:02.612Z,84.05
2022-11-01T07:36:02.672Z,83.84
2022-11-01T07:37:02.476Z,83.34
2022-11-01T07:38:05.075Z,82.37
2022-11-01T07:39:02.292Z,80.45
2022-11-01T07:40:02.822Z,80.96
2022-11-01T07:41:02.476Z,80.49
2022-11-01T07:42:02.206Z,78.88
2022-11-01T07:43:01.985Z,78.67
2022-11-01T07:44:02.189Z,78.47
2022-11-01T07:45:02.048Z,78.67
2022-11-01T07:46:02.199Z,78.17
2022-11-01T07:47:02.687Z,77.56
2022-11-01T07:48:02.955Z,78.37
2022-11-01T07:49:02.339Z,76.86
2022-11-01T07:50:02.524Z,76.55
2022-11-01T07:51:02.722Z,77.06
2022-11-01T07:52:03.159Z,77.36
2022-11-01T07:53:03.035Z,75.95
2022-11-01T07:54:02.633Z,76.65
2022-11-01T07:55:02.870Z,76.08
2022-11-01T07:56:03.011Z,75.78
2022-11-01T07:57:02.773Z,75.98
2022-11-01T07:58:03.059Z,75.57
2022-11-01T07:59:02.766Z,75.48
2022-11-01T08:00:02.462Z,75.68
2022-11-01T08:01:02.647Z,75.68
2022-11-01T08:02:06.969Z,76.18
2022-11-01T08:03:03.966Z,75.98
2022-11-01T08:04:03.361Z,76.18
2022-11-01T08:05:03.249Z,75.68
2022-11-01T08:06:02.835Z,75.57
2022-11-01T08:07:03.302Z,75.48
2022-11-01T08:08:03.871Z,75.88
2022-11-01T08:09:03.270Z,75.17
2022-11-01T08:10:03.173Z,74.06
2022-11-01T08:11:03.391Z,73.86
2022-11-01T08:12:03.062Z,74.40
2022-11-01T08:13:02.969Z,74.40
2022-11-01T08:14:05.175Z,73.19
2022-11-01T08:15:02.529Z,73.39
2022-11-01T08:16:02.905Z,72.48
2022-11-01T08:17:03.595Z,72.28
2022-11-01T08:18:03.783Z,72.17
2022-11-01T08:19:03.450Z,73.08
2022-11-01T08:20:03.356Z,72.17
2022-11-01T08:21:03.439Z,71.70
2022-11-01T08:22:02.547Z,72.41
2022-11-01T08:23:02.855Z,72.38
2022-11-01T08:24:02.958Z,71.47
2022-11-01T08:25:02.711Z,72.08
2022-11-01T08:26:02.820Z,71.97
2022-11-01T08:27:03.413Z,72.38
2022-11-01T08:28:03.276Z,72.08
2022-11-01T08:29:03.248Z,72.78
2022-11-01T08:30:03.273Z,72.99
2022-11-01T08:31:03.158Z,71.26
2022-11-01T08:32:03.440Z,71.26
2022-11-01T08:33:03.861Z,71.97
2022-11-01T08:34:03.075Z,72.68
2022-11-01T08:35:03.069Z,71.77
2022-11-01T08:36:03.102Z,71.47
2022-11-01T08:37:02.558Z,71.47
2022-11-01T08:38:02.644Z,71.23
2022-11-01T08:39:03.204Z,71.26
2022-11-01T08:40:02.870Z,71.84
2022-11-01T08:41:02.807Z,70.53
2022-11-01T08:42:02.884Z,70.93
2022-11-01T08:43:03.241Z,70.93
2022-11-01T08:44:03.206Z,70.42
2022-11-01T08:45:03.398Z,71.23
2022-11-01T08:46:02.841Z,71.64
2022-11-01T08:47:02.945Z,71.73
2022-11-01T08:48:03.211Z,72.11
2022-11-01T08:49:03.225Z,72.41
2022-11-01T08:50:04.936Z,72.51
2022-11-01T08:51:03.134Z,71.80
2022-11-01T08:52:03.289Z,72.00
2022-11-01T08:53:03.792Z,71.91
2022-11-01T08:54:03.873Z,71.30
2022-11-01T08:55:03.503Z,71.50
2022-11-01T08:56:03.868Z,71.57
2022-11-01T08:57:02.611Z,70.96
2022-11-01T08:58:02.824Z,71.26
2022-11-01T08:59:02.582Z,71.17
2022-11-01T09:00:02.707Z,71.37
2022-11-01T09:01:03.332Z,72.07
2022-11-01T09:02:01.987Z,72.27
2022-11-01T09:03:02.002Z,71.26
2022-11-01T09:04:01.805Z,70.76
2022-11-01T09:05:01.781Z,70.66
2022-11-01T09:06:02.283Z,70.96
2022-11-01T09:07:02.018Z,70.15
2022-11-01T09:08:02.467Z,71.33
2022-11-01T09:09:02.217Z,69.75
2022-11-01T09:10:02.283Z,70.46
2022-11-01T09:11:02.330Z,70.02
2022-11-01T09:12:02.217Z,70.02
2022-11-01T09:13:02.606Z,70.53
2022-11-01T09:14:02.771Z,70.53
2022-11-01T09:15:02.711Z,70.62
2022-11-01T09:16:02.688Z,71.33
2022-11-01T09:17:02.294Z,71.73
2022-11-01T09:18:02.321Z,71.50
2022-11-01T09:19:02.397Z,69.99
2022-11-01T09:20:02.755Z,69.79
2022-11-01T09:21:02.796Z,70.49
2022-11-01T09:22:02.599Z,69.99
2022-11-01T09:23:03.348Z,69.89
2022-11-01T09:24:02.793Z,68.57
2022-11-01T09:25:02.908Z,68.98
2022-11-01T09:26:02.788Z,68.88
2022-11-01T09:27:02.118Z,68.88
2022-11-01T09:28:02.137Z,67.87
2022-11-01T09:29:02.020Z,67.97
2022-11-01T09:30:02.031Z,67.27
2022-11-01T09:31:19.496Z,67.77
2022-11-01T09:32:01.904Z,68.65
2022-11-01T09:33:02.045Z,68.04
2022-11-01T09:34:02.336Z,67.33
2022-11-01T09:35:02.006Z,67.13
2022-11-01T09:36:02.319Z,67.33
2022-11-01T09:37:02.287Z,68.34
2022-11-01T09:38:02.184Z,67.13
2022-11-01T09:39:02.151Z,67.63
2022-11-01T09:40:02.741Z,66.63
2022-11-01T09:41:02.678Z,66.63
2022-11-01T09:42:02.655Z,67.43
2022-11-01T09:43:03.017Z,68.01
2022-11-01T09:44:03.086Z,67.60
2022-11-01T09:45:02.871Z,67.40
2022-11-01T09:46:02.819Z,66.09
2022-11-01T09:47:02.815Z,67.00
2022-11-01T09:48:02.322Z,67.07
2022-11-01T09:49:02.490Z,67.68
2022-11-01T09:50:02.390Z,67.77
2022-11-01T09:51:02.523Z,67.68
2022-11-01T09:52:01.939Z,67.77
2022-11-01T09:53:01.719Z,67.68
2022-11-01T09:54:01.807Z,66.77
2022-11-01T09:55:01.873Z,66.56
2022-11-01T09:56:01.812Z,66.74
2022-11-01T09:57:02.596Z,65.46
2022-11-01T09:58:02.977Z,65.36
2022-11-01T09:59:02.954Z,65.26
2022-11-01T10:00:02.681Z,65.96
2022-11-01T10:01:02.514Z,66.47
2022-11-01T10:02:05.822Z,65.16
2022-11-01T10:03:01.977Z,65.76
2022-11-01T10:04:01.910Z,64.86
2022-11-01T10:05:01.971Z,65.66
2022-11-01T10:06:01.854Z,66.77
2022-11-01T10:07:02.494Z,65.46
2022-11-01T10:08:03.042Z,64.75
2022-11-01T10:09:02.465Z,65.86
2022-11-01T10:10:02.205Z,65.93
2022-11-01T10:11:02.199Z,64.42
2022-11-01T10:12:02.760Z,63.11
2022-11-01T10:13:02.435Z,64.42
2022-11-01T10:14:02.677Z,64.32
2022-11-01T10:15:02.808Z,64.02
2022-11-01T10:16:02.601Z,63.01
2022-11-01T10:17:02.436Z,63.01
2022-11-01T10:18:02.691Z,63.11
2022-11-01T10:19:02.689Z,62.04
2022-11-01T10:20:02.483Z,61.63
2022-11-01T10:21:02.152Z,62.84
2022-11-01T10:22:02.779Z,62.34
2022-11-01T10:23:03.193Z,63.95
2022-11-01T10:24:02.445Z,61.83
2022-11-01T10:25:02.648Z,63.21
2022-11-01T10:26:02.576Z,64.42
2022-11-01T10:27:02.381Z,63.31
2022-11-01T10:28:02.429Z,63.08
2022-11-01T10:29:02.067Z,62.48
2022-11-01T10:30:02.167Z,61.27
2022-11-01T10:31:01.922Z,60.97
2022-11-01T10:32:02.959Z,61.87
2022-11-01T10:33:03.161Z,62.07
2022-11-01T10:34:03.070Z,62.27
2022-11-01T10:35:02.571Z,62.18
2022-11-01T10:36:02.578Z,63.18
2022-11-01T10:37:01.879Z,63.15
2022-11-01T10:38:19.407Z,64.26
2022-11-01T10:40:06.377Z,63.82
2022-11-01T10:41:01.924Z,62.42
2022-11-01T10:42:02.590Z,60.71
2022-11-01T10:43:02.514Z,60.91
2022-11-01T10:44:02.559Z,59.30
2022-11-01T10:45:02.631Z,59.50
2022-11-01T10:46:02.705Z,61.04
2022-11-01T10:47:02.144Z,62.22
2022-11-01T10:48:02.431Z,60.81
2022-11-01T10:49:01.976Z,60.11
2022-11-01T10:50:07.044Z,60.51
2022-11-01T10:51:01.762Z,58.50
2022-11-01T10:52:02.450Z,60.11
2022-11-01T10:53:02.141Z,60.31
2022-11-01T10:54:02.411Z,60.31
2022-11-01T10:55:02.510Z,59.91
2022-11-01T10:56:01.977Z,61.31
2022-11-01T10:57:03.072Z,60.38
2022-11-01T10:58:02.903Z,60.88
2022-11-01T10:59:02.622Z,59.17
2022-11-01T11:00:02.980Z,58.47
2022-11-01T11:01:02.989Z,59.38
2022-11-01T11:02:02.342Z,58.47
2022-11-01T11:03:02.884Z,58.29
2022-11-01T11:04:02.485Z,58.90
2022-11-01T11:05:02.659Z,59.10
2022-11-01T11:06:02.300Z,59.00
2022-11-01T11:07:02.808Z,59.33
2022-11-01T11:08:02.721Z,59.63
2022-11-01T11:09:02.849Z,59.63
2022-11-01T11:10:03.262Z,60.61
2022-11-01T11:11:02.863Z,61.82
2022-11-01T11:12:03.365Z,59.70
2022-11-01T11:13:03.646Z,59.80
2022-11-01T11:14:02.832Z,60.38
2022-11-01T11:15:02.915Z,61.29
2022-11-01T11:16:02.936Z,59.58
2022-11-01T11:17:02.134Z,59.34
2022-11-01T11:18:02.250Z,58.24
2022-11-01T11:19:02.287Z,58.24
2022-11-01T11:20:02.646Z,57.34
2022-11-01T11:21:02.728Z,57.17
2022-11-01T11:22:02.649Z,57.67
2022-11-01T11:23:03.597Z,57.26
2022-11-01T11:24:03.134Z,56.26
2022-11-01T11:25:03.336Z,56.76
2022-11-01T11:26:03.077Z,56.86
2022-11-01T11:27:02.911Z,56.46
2022-11-01T11:28:02.456Z,56.86
2022-11-01T11:29:02.108Z,56.63
2022-11-01T11:30:02.039Z,56.13
2022-11-01T11:31:01.951Z,57.84
2022-11-01T11:32:02.491Z,56.54
2022-11-01T11:33:03.188Z,56.84
2022-11-01T11:34:03.143Z,57.61
2022-11-01T11:35:03.141Z,57.41
2022-11-01T11:36:02.850Z,57.51
2022-11-01T11:37:03.174Z,57.11
2022-11-01T11:38:03.115Z,57.98
2022-11-01T11:39:02.540Z,56.38
2022-11-01T11:40:02.497Z,57.39
2022-11-01T11:41:02.456Z,57.79
2022-11-01T11:42:02.440Z,58.36
2022-11-01T11:43:03.435Z,56.85
2022-11-01T11:44:03.249Z,57.35
2022-11-01T11:45:03.173Z,56.35
2022-11-01T11:46:03.108Z,55.45
2022-11-01T11:47:02.955Z,54.15
2022-11-01T11:48:03.013Z,54.35
2022-11-01T11:49:02.484Z,52.57
2022-11-01T11:50:02.921Z,53.37
2022-11-01T11:51:02.693Z,54.47
2022-11-01T11:52:02.493Z,54.07
2022-11-01T11:53:03.256Z,54.88
2022-11-01T11:54:03.432Z,51.76
2022-11-01T11:55:03.234Z,53.77
2022-11-01T11:56:03.113Z,52.77
2022-11-01T11:57:02.948Z,54.07
2022-11-01T11:58:03.214Z,53.17
2022-11-01T11:59:07.418Z,53.27
2022-11-01T12:00:02.500Z,54.68
2022-11-01T12:01:02.720Z,53.64
2022-11-01T12:02:02.915Z,53.95
2022-11-01T12:03:03.351Z,53.55
2022-11-01T12:04:02.557Z,53.95
2022-11-01T12:05:02.750Z,53.34
2022-11-01T12:06:02.770Z,54.05
2022-11-01T12:07:02.637Z,53.64
2022-11-01T12:08:03.062Z,53.62
2022-11-01T12:09:03.118Z,54.62
2022-11-01T12:10:03.041Z,53.82
2022-11-01T12:11:02.668Z,54.02
2022-11-01T12:12:02.537Z,52.92
2022-11-01T12:13:03.746Z,53.12
2022-11-01T12:14:03.179Z,53.72
2022-11-01T12:15:03.167Z,54.02
2022-11-01T12:16:03.407Z,53.22
2022-11-01T12:17:03.064Z,53.50
2022-11-01T12:18:03.137Z,53.19
2022-11-01T12:19:02.488Z,53.30
2022-11-01T12:20:02.865Z,53.39
2022-11-01T12:21:02.355Z,54.57
2022-11-01T12:22:02.609Z,52.67
2022-11-01T12:23:02.814Z,53.07
2022-11-01T12:24:03.011Z,52.97
2022-11-01T12:25:03.061Z,52.17
2022-11-01T12:26:03.499Z,51.49
2022-11-01T12:27:03.437Z,52.59
2022-11-01T12:28:03.069Z,53.00
2022-11-01T12:29:02.832Z,52.39
2022-11-01T12:30:02.834Z,51.69
2022-11-01T12:31:02.640Z,51.99
2022-11-01T12:32:03.063Z,53.09
2022-11-01T12:33:03.773Z,51.69
2022-11-01T12:34:03.427Z,52.09
2022-11-01T12:35:03.606Z,52.29
2022-11-01T12:36:03.636Z,51.46
2022-11-01T12:37:03.572Z,50.19
2022-11-01T12:38:03.636Z,51.59
2022-11-01T12:39:03.148Z,53.19
2022-11-01T12:40:03.157Z,51.67
2022-11-01T12:41:02.884Z,50.96
2022-11-01T12:42:03.041Z,51.77
2022-11-01T12:43:03.744Z,51.57
2022-11-01T12:44:03.526Z,50.57
2022-11-01T12:45:03.745Z,50.67
2022-11-01T12:46:03.571Z,51.37
2022-11-01T12:47:03.809Z,50.67
2022-11-01T12:48:03.730Z,50.76
2022-11-01T12:49:03.089Z,51.27
2022-11-01T12:50:03.073Z,53.07
2022-11-01T12:51:03.220Z,49.57
2022-11-01T12:52:02.845Z,50.67
2022-11-01T12:53:04.042Z,52.07
2022-11-01T12:54:03.473Z,51.46
2022-11-01T12:55:02.961Z,52.04